메인 페이지
METAR-TAF:

METAR-TAF

공항 :

케이프타운 국제공항

케이프타운, 남아프리카공화국

위도: 33-59S, 경도: 018-36E, 고도: 42m

현재 날씨관측

예보는 37분 전, 03:00시(UTC)에 발표되었습니다.
동북동2kt
온도 7°C
습도 93%
기압 1021 hPa
시정: 0400m
안개

METAR: FACT 250300Z 06002KT 0400 R01/0450 FG NSC 07/06 Q1021 BECMG 0200

시각: 05:37 (03:37 UTC)

예보

예보는 5 시간 37분 전, 22:00시(UTC)에 발표되었습니다.
예보 대상 시간: 25일 00시부터 26일 06시까지 (UTC)
여러 방향의 바람 3kt
시정 10km 이상
고도 2000ft 상공 구름 조금
확률 40% :
일시적
25일 00시부터 25일 09시까지 (UTC)
시정: 2000m
박무
일시적
25일 00시부터 25일 08시까지 (UTC)
시정: 0200m
안개
25일 1500시부터 (UTC)
북북서12kt
시정 10km 이상
고도 1000ft 상공 구름 조금
고도 2000ft 상공 구름 많음
일시적
26일 02시부터 26일 06시까지 (UTC)
시정: 4000m
약한비,

TAF: FACT 242200Z 2500/2606 VRB03KT 9999 FEW020 TX15/2512Z TN08/2506Z PROB40 TEMPO 2500/2509 2000 BR TEMPO 2500/2508 0200 FG NSC FM251500 34012KT 9999 FEW010 BKN020 TEMPO 2602/2606 4000 -RA

4,000개 이상의 공항 관측 자료 및 예보 (METAR 및 TAF 보고).

지도상에서 검색 가능한 기상관측소가 노란 점과 빨간 점으로 표시되어 있습니다.

기상관측소 명을 보려면 표시 위로 마우스를 이동하세요.

날씨 관측과 예보를 보려면 클릭하세요.

지도 변경 : 확대하려면 엑스 표시가 있는 녹색 버튼, 축소하려면 빼기 표시가 있는 녹색 버튼, 다음 페이지의 지도를 보려면 녹색 화살표를 클릭하세요.


METAR-TAF: